sensor_id;sensor_type;location;lat;lon;timestamp;P1;durP1;ratioP1;P2;durP2;ratioP2
31182;SDS011;17813;0.000;0.000;2023-06-10T00:00:54;9.43;;;8.63;;
31182;SDS011;17813;0.000;0.000;2023-06-10T00:03:24;9.30;;;8.40;;
31182;SDS011;17813;0.000;0.000;2023-06-10T00:05:52;8.83;;;8.13;;
31182;SDS011;17813;0.000;0.000;2023-06-10T00:08:18;9.47;;;8.53;;
31182;SDS011;17813;0.000;0.000;2023-06-10T00:10:46;9.27;;;8.37;;
31182;SDS011;17813;0.000;0.000;2023-06-10T00:13:12;10.57;;;9.57;;
31182;SDS011;17813;0.000;0.000;2023-06-10T00:15:39;10.00;;;9.00;;
31182;SDS011;17813;0.000;0.000;2023-06-10T00:18:06;8.90;;;8.17;;
31182;SDS011;17813;0.000;0.000;2023-06-10T00:20:35;9.53;;;8.63;;
31182;SDS011;17813;0.000;0.000;2023-06-10T00:23:03;10.50;;;9.50;;
31182;SDS011;17813;0.000;0.000;2023-06-10T00:25:32;9.50;;;8.70;;
31182;SDS011;17813;0.000;0.000;2023-06-10T00:27:59;10.20;;;9.30;;
31182;SDS011;17813;0.000;0.000;2023-06-10T00:30:25;9.80;;;8.90;;
31182;SDS011;17813;0.000;0.000;2023-06-10T00:32:52;9.23;;;8.43;;
31182;SDS011;17813;0.000;0.000;2023-06-10T00:35:19;10.53;;;8.73;;
31182;SDS011;17813;0.000;0.000;2023-06-10T00:37:46;9.80;;;9.00;;
31182;SDS011;17813;0.000;0.000;2023-06-10T00:40:12;9.70;;;8.90;;
31182;SDS011;17813;0.000;0.000;2023-06-10T00:42:39;10.10;;;9.17;;
31182;SDS011;17813;0.000;0.000;2023-06-10T00:45:11;10.67;;;9.67;;
31182;SDS011;17813;0.000;0.000;2023-06-10T00:47:38;9.57;;;8.77;;
31182;SDS011;17813;0.000;0.000;2023-06-10T00:50:05;10.70;;;9.50;;
31182;SDS011;17813;0.000;0.000;2023-06-10T00:52:34;11.40;;;9.10;;
31182;SDS011;17813;0.000;0.000;2023-06-10T00:55:02;9.53;;;8.73;;
31182;SDS011;17813;0.000;0.000;2023-06-10T00:57:30;9.70;;;8.80;;
31182;SDS011;17813;0.000;0.000;2023-06-10T00:59:58;9.30;;;8.50;;
31182;SDS011;17813;0.000;0.000;2023-06-10T01:02:24;9.70;;;8.80;;
31182;SDS011;17813;0.000;0.000;2023-06-10T01:04:53;10.27;;;9.30;;
31182;SDS011;17813;0.000;0.000;2023-06-10T01:07:28;10.10;;;9.10;;
31182;SDS011;17813;0.000;0.000;2023-06-10T01:10:19;9.57;;;8.73;;
31182;SDS011;17813;0.000;0.000;2023-06-10T01:15:21;10.37;;;9.37;;
31182;SDS011;17813;0.000;0.000;2023-06-10T01:18:00;10.73;;;9.63;;
31182;SDS011;17813;0.000;0.000;2023-06-10T01:20:28;10.53;;;9.57;;
31182;SDS011;17813;0.000;0.000;2023-06-10T01:22:59;9.73;;;8.87;;
31182;SDS011;17813;0.000;0.000;2023-06-10T01:25:28;9.40;;;8.60;;
31182;SDS011;17813;0.000;0.000;2023-06-10T01:28:10;9.03;;;8.20;;
31182;SDS011;17813;0.000;0.000;2023-06-10T01:33:43;10.20;;;8.70;;
31182;SDS011;17813;0.000;0.000;2023-06-10T01:36:13;9.27;;;8.27;;
31182;SDS011;17813;0.000;0.000;2023-06-10T01:38:44;9.93;;;9.03;;
31182;SDS011;17813;0.000;0.000;2023-06-10T01:41:13;10.50;;;9.50;;
31182;SDS011;17813;0.000;0.000;2023-06-10T01:43:50;10.93;;;9.27;;
31182;SDS011;17813;0.000;0.000;2023-06-10T01:46:17;10.27;;;9.47;;
31182;SDS011;17813;0.000;0.000;2023-06-10T01:48:45;9.33;;;8.53;;
31182;SDS011;17813;0.000;0.000;2023-06-10T01:51:12;9.30;;;8.43;;
31182;SDS011;17813;0.000;0.000;2023-06-10T01:53:39;9.50;;;8.53;;
31182;SDS011;17813;0.000;0.000;2023-06-10T01:56:06;9.57;;;8.77;;
31182;SDS011;17813;0.000;0.000;2023-06-10T01:58:33;10.10;;;9.10;;
31182;SDS011;17813;0.000;0.000;2023-06-10T02:01:00;9.90;;;8.90;;
31182;SDS011;17813;0.000;0.000;2023-06-10T02:03:26;10.17;;;9.27;;
31182;SDS011;17813;0.000;0.000;2023-06-10T02:05:53;9.40;;;8.60;;
31182;SDS011;17813;0.000;0.000;2023-06-10T02:08:23;9.67;;;8.80;;
31182;SDS011;17813;0.000;0.000;2023-06-10T02:10:50;9.90;;;9.00;;
31182;SDS011;17813;0.000;0.000;2023-06-10T02:13:17;10.13;;;9.23;;
31182;SDS011;17813;0.000;0.000;2023-06-10T02:15:44;10.63;;;9.57;;
31182;SDS011;17813;0.000;0.000;2023-06-10T02:18:10;9.40;;;8.60;;
31182;SDS011;17813;0.000;0.000;2023-06-10T02:20:40;8.90;;;8.10;;
31182;SDS011;17813;0.000;0.000;2023-06-10T02:23:07;9.47;;;8.63;;
31182;SDS011;17813;0.000;0.000;2023-06-10T02:25:34;9.67;;;8.77;;
31182;SDS011;17813;0.000;0.000;2023-06-10T02:28:00;10.17;;;9.33;;
31182;SDS011;17813;0.000;0.000;2023-06-10T02:30:29;9.83;;;8.90;;
31182;SDS011;17813;0.000;0.000;2023-06-10T02:32:57;11.57;;;8.83;;
31182;SDS011;17813;0.000;0.000;2023-06-10T02:35:26;9.40;;;8.60;;
31182;SDS011;17813;0.000;0.000;2023-06-10T02:37:53;9.33;;;8.53;;
31182;SDS011;17813;0.000;0.000;2023-06-10T02:40:22;10.80;;;9.80;;
31182;SDS011;17813;0.000;0.000;2023-06-10T02:42:49;9.97;;;8.97;;
31182;SDS011;17813;0.000;0.000;2023-06-10T02:45:16;10.20;;;9.10;;
31182;SDS011;17813;0.000;0.000;2023-06-10T02:47:43;9.87;;;8.87;;
31182;SDS011;17813;0.000;0.000;2023-06-10T02:50:10;10.00;;;9.00;;
31182;SDS011;17813;0.000;0.000;2023-06-10T02:52:37;10.43;;;9.30;;
31182;SDS011;17813;0.000;0.000;2023-06-10T02:55:04;10.20;;;9.30;;
31182;SDS011;17813;0.000;0.000;2023-06-10T02:57:32;10.60;;;9.60;;
31182;SDS011;17813;0.000;0.000;2023-06-10T02:59:59;9.90;;;9.10;;
31182;SDS011;17813;0.000;0.000;2023-06-10T03:02:29;10.30;;;9.40;;
31182;SDS011;17813;0.000;0.000;2023-06-10T03:05:00;9.50;;;8.70;;
31182;SDS011;17813;0.000;0.000;2023-06-10T03:07:28;9.60;;;8.73;;
31182;SDS011;17813;0.000;0.000;2023-06-10T03:09:55;10.13;;;9.20;;
31182;SDS011;17813;0.000;0.000;2023-06-10T03:12:22;10.93;;;9.90;;
31182;SDS011;17813;0.000;0.000;2023-06-10T03:14:49;10.60;;;9.60;;
31182;SDS011;17813;0.000;0.000;2023-06-10T03:17:20;10.20;;;9.20;;
31182;SDS011;17813;0.000;0.000;2023-06-10T03:19:46;10.57;;;9.53;;
31182;SDS011;17813;0.000;0.000;2023-06-10T03:22:14;11.00;;;9.90;;
31182;SDS011;17813;0.000;0.000;2023-06-10T03:24:42;10.40;;;9.40;;
31182;SDS011;17813;0.000;0.000;2023-06-10T03:27:09;10.40;;;9.50;;
31182;SDS011;17813;0.000;0.000;2023-06-10T03:29:37;11.30;;;9.73;;
31182;SDS011;17813;0.000;0.000;2023-06-10T03:32:03;9.70;;;8.87;;
31182;SDS011;17813;0.000;0.000;2023-06-10T03:34:34;10.60;;;9.57;;
31182;SDS011;17813;0.000;0.000;2023-06-10T03:37:00;10.47;;;9.47;;
31182;SDS011;17813;0.000;0.000;2023-06-10T03:39:28;12.17;;;10.23;;
31182;SDS011;17813;0.000;0.000;2023-06-10T03:41:55;10.67;;;9.67;;
31182;SDS011;17813;0.000;0.000;2023-06-10T03:44:23;11.57;;;9.63;;
31182;SDS011;17813;0.000;0.000;2023-06-10T03:46:54;10.40;;;9.40;;
31182;SDS011;17813;0.000;0.000;2023-06-10T03:49:22;10.30;;;9.40;;
31182;SDS011;17813;0.000;0.000;2023-06-10T03:51:52;10.93;;;9.93;;
31182;SDS011;17813;0.000;0.000;2023-06-10T03:54:19;10.90;;;9.37;;
31182;SDS011;17813;0.000;0.000;2023-06-10T03:56:46;10.27;;;9.37;;
31182;SDS011;17813;0.000;0.000;2023-06-10T03:59:16;11.17;;;10.07;;
31182;SDS011;17813;0.000;0.000;2023-06-10T04:01:43;12.10;;;9.47;;
31182;SDS011;17813;0.000;0.000;2023-06-10T04:04:13;10.33;;;9.37;;
31182;SDS011;17813;0.000;0.000;2023-06-10T04:06:43;10.90;;;9.80;;
31182;SDS011;17813;0.000;0.000;2023-06-10T04:09:11;11.67;;;9.43;;
31182;SDS011;17813;0.000;0.000;2023-06-10T04:11:39;9.80;;;8.90;;
31182;SDS011;17813;0.000;0.000;2023-06-10T04:14:07;10.13;;;9.23;;
31182;SDS011;17813;0.000;0.000;2023-06-10T04:16:35;11.57;;;9.13;;
31182;SDS011;17813;0.000;0.000;2023-06-10T04:19:04;9.60;;;8.80;;
31182;SDS011;17813;0.000;0.000;2023-06-10T04:21:35;11.07;;;9.80;;
31182;SDS011;17813;0.000;0.000;2023-06-10T04:24:02;9.43;;;8.60;;
31182;SDS011;17813;0.000;0.000;2023-06-10T04:26:29;10.90;;;9.17;;
31182;SDS011;17813;0.000;0.000;2023-06-10T04:28:56;9.60;;;8.70;;
31182;SDS011;17813;0.000;0.000;2023-06-10T04:31:24;9.03;;;8.00;;
31182;SDS011;17813;0.000;0.000;2023-06-10T04:33:51;8.23;;;7.53;;
31182;SDS011;17813;0.000;0.000;2023-06-10T04:36:19;8.60;;;7.63;;
31182;SDS011;17813;0.000;0.000;2023-06-10T04:38:46;9.30;;;7.20;;
31182;SDS011;17813;0.000;0.000;2023-06-10T04:41:14;9.38;;;7.68;;
31182;SDS011;17813;0.000;0.000;2023-06-10T04:43:42;9.00;;;7.40;;
31182;SDS011;17813;0.000;0.000;2023-06-10T04:46:09;7.78;;;6.97;;
31182;SDS011;17813;0.000;0.000;2023-06-10T04:48:36;8.32;;;6.95;;
31182;SDS011;17813;0.000;0.000;2023-06-10T04:51:03;7.35;;;6.75;;
31182;SDS011;17813;0.000;0.000;2023-06-10T04:53:30;6.88;;;6.22;;
31182;SDS011;17813;0.000;0.000;2023-06-10T04:55:58;5.68;;;4.78;;
31182;SDS011;17813;0.000;0.000;2023-06-10T04:58:25;5.65;;;4.55;;
31182;SDS011;17813;0.000;0.000;2023-06-10T05:00:52;5.85;;;4.18;;
31182;SDS011;17813;0.000;0.000;2023-06-10T05:03:19;4.95;;;4.43;;
31182;SDS011;17813;0.000;0.000;2023-06-10T05:05:46;5.40;;;4.13;;
31182;SDS011;17813;0.000;0.000;2023-06-10T05:08:13;6.05;;;4.50;;
31182;SDS011;17813;0.000;0.000;2023-06-10T05:10:40;5.95;;;4.07;;
31182;SDS011;17813;0.000;0.000;2023-06-10T05:13:07;6.85;;;4.05;;
31182;SDS011;17813;0.000;0.000;2023-06-10T05:15:35;7.50;;;4.50;;
31182;SDS011;17813;0.000;0.000;2023-06-10T05:18:02;6.18;;;4.40;;
31182;SDS011;17813;0.000;0.000;2023-06-10T05:20:33;7.93;;;4.30;;
31182;SDS011;17813;0.000;0.000;2023-06-10T05:23:01;5.28;;;4.53;;
31182;SDS011;17813;0.000;0.000;2023-06-10T05:25:32;5.63;;;4.60;;
31182;SDS011;17813;0.000;0.000;2023-06-10T05:27:59;6.25;;;4.35;;
31182;SDS011;17813;0.000;0.000;2023-06-10T05:30:27;5.72;;;4.35;;
31182;SDS011;17813;0.000;0.000;2023-06-10T05:32:54;5.32;;;4.45;;
31182;SDS011;17813;0.000;0.000;2023-06-10T05:35:22;6.05;;;4.50;;
31182;SDS011;17813;0.000;0.000;2023-06-10T05:37:50;6.22;;;4.60;;
31182;SDS011;17813;0.000;0.000;2023-06-10T05:40:17;6.60;;;4.55;;
31182;SDS011;17813;0.000;0.000;2023-06-10T05:42:44;4.82;;;4.18;;
31182;SDS011;17813;0.000;0.000;2023-06-10T05:45:11;6.40;;;4.57;;
31182;SDS011;17813;0.000;0.000;2023-06-10T05:47:39;5.63;;;4.57;;
31182;SDS011;17813;0.000;0.000;2023-06-10T05:50:07;9.38;;;4.32;;
31182;SDS011;17813;0.000;0.000;2023-06-10T05:52:35;6.47;;;4.40;;
31182;SDS011;17813;0.000;0.000;2023-06-10T05:55:03;5.18;;;4.25;;
31182;SDS011;17813;0.000;0.000;2023-06-10T05:57:30;6.18;;;4.32;;
31182;SDS011;17813;0.000;0.000;2023-06-10T05:59:58;6.25;;;4.70;;
31182;SDS011;17813;0.000;0.000;2023-06-10T06:02:28;5.60;;;4.60;;
31182;SDS011;17813;0.000;0.000;2023-06-10T06:04:56;5.65;;;4.40;;
31182;SDS011;17813;0.000;0.000;2023-06-10T06:07:23;5.75;;;4.22;;
31182;SDS011;17813;0.000;0.000;2023-06-10T06:09:50;5.70;;;4.60;;
31182;SDS011;17813;0.000;0.000;2023-06-10T06:12:17;7.00;;;4.60;;
31182;SDS011;17813;0.000;0.000;2023-06-10T06:14:44;6.80;;;4.75;;
31182;SDS011;17813;0.000;0.000;2023-06-10T06:17:14;5.72;;;4.65;;
31182;SDS011;17813;0.000;0.000;2023-06-10T06:19:42;4.93;;;4.05;;
31182;SDS011;17813;0.000;0.000;2023-06-10T06:22:12;5.13;;;4.53;;
31182;SDS011;17813;0.000;0.000;2023-06-10T06:24:39;6.18;;;4.60;;
31182;SDS011;17813;0.000;0.000;2023-06-10T06:27:06;5.70;;;4.82;;
31182;SDS011;17813;0.000;0.000;2023-06-10T06:29:33;7.10;;;4.32;;
31182;SDS011;17813;0.000;0.000;2023-06-10T06:32:01;6.40;;;4.78;;
31182;SDS011;17813;0.000;0.000;2023-06-10T06:34:29;5.15;;;4.40;;
31182;SDS011;17813;0.000;0.000;2023-06-10T06:36:58;7.43;;;5.00;;
31182;SDS011;17813;0.000;0.000;2023-06-10T06:39:26;6.15;;;4.80;;
31182;SDS011;17813;0.000;0.000;2023-06-10T06:41:53;6.03;;;4.63;;
31182;SDS011;17813;0.000;0.000;2023-06-10T06:44:20;4.70;;;4.28;;
31182;SDS011;17813;0.000;0.000;2023-06-10T06:46:47;6.38;;;5.00;;
31182;SDS011;17813;0.000;0.000;2023-06-10T06:49:15;9.80;;;4.85;;
31182;SDS011;17813;0.000;0.000;2023-06-10T06:51:41;5.80;;;4.70;;
31182;SDS011;17813;0.000;0.000;2023-06-10T06:54:08;6.10;;;4.82;;
31182;SDS011;17813;0.000;0.000;2023-06-10T06:56:36;5.85;;;5.25;;
31182;SDS011;17813;0.000;0.000;2023-06-10T06:59:03;5.53;;;4.80;;
31182;SDS011;17813;0.000;0.000;2023-06-10T07:01:32;7.85;;;4.70;;
31182;SDS011;17813;0.000;0.000;2023-06-10T07:04:00;6.32;;;4.60;;
31182;SDS011;17813;0.000;0.000;2023-06-10T07:06:27;4.80;;;4.40;;
31182;SDS011;17813;0.000;0.000;2023-06-10T07:08:55;5.63;;;4.72;;
31182;SDS011;17813;0.000;0.000;2023-06-10T07:11:24;5.10;;;4.60;;
31182;SDS011;17813;0.000;0.000;2023-06-10T07:13:52;5.07;;;4.50;;
31182;SDS011;17813;0.000;0.000;2023-06-10T07:16:20;5.10;;;4.60;;
31182;SDS011;17813;0.000;0.000;2023-06-10T07:18:47;5.68;;;4.47;;
31182;SDS011;17813;0.000;0.000;2023-06-10T07:21:15;5.82;;;4.30;;
31182;SDS011;17813;0.000;0.000;2023-06-10T07:23:44;8.45;;;4.97;;
31182;SDS011;17813;0.000;0.000;2023-06-10T07:26:12;5.05;;;4.63;;
31182;SDS011;17813;0.000;0.000;2023-06-10T07:28:39;5.43;;;4.80;;
31182;SDS011;17813;0.000;0.000;2023-06-10T07:31:08;6.22;;;4.70;;
31182;SDS011;17813;0.000;0.000;2023-06-10T07:33:35;7.88;;;5.15;;
31182;SDS011;17813;0.000;0.000;2023-06-10T07:36:04;5.20;;;4.70;;
31182;SDS011;17813;0.000;0.000;2023-06-10T07:38:34;5.80;;;4.60;;
31182;SDS011;17813;0.000;0.000;2023-06-10T07:41:03;5.40;;;4.90;;
31182;SDS011;17813;0.000;0.000;2023-06-10T07:43:31;5.88;;;4.95;;
31182;SDS011;17813;0.000;0.000;2023-06-10T07:45:58;6.30;;;4.97;;
31182;SDS011;17813;0.000;0.000;2023-06-10T07:48:25;7.05;;;6.13;;
31182;SDS011;17813;0.000;0.000;2023-06-10T07:50:52;7.43;;;5.35;;
31182;SDS011;17813;0.000;0.000;2023-06-10T07:53:20;5.18;;;4.68;;
31182;SDS011;17813;0.000;0.000;2023-06-10T07:55:49;5.78;;;5.13;;
31182;SDS011;17813;0.000;0.000;2023-06-10T07:58:17;5.22;;;4.72;;
31182;SDS011;17813;0.000;0.000;2023-06-10T08:00:44;5.72;;;4.80;;
31182;SDS011;17813;0.000;0.000;2023-06-10T08:03:13;6.32;;;4.43;;
31182;SDS011;17813;0.000;0.000;2023-06-10T08:05:41;6.03;;;4.97;;
31182;SDS011;17813;0.000;0.000;2023-06-10T08:08:14;5.93;;;4.97;;
31182;SDS011;17813;0.000;0.000;2023-06-10T08:10:41;6.43;;;5.10;;
31182;SDS011;17813;0.000;0.000;2023-06-10T08:13:08;5.68;;;5.10;;
31182;SDS011;17813;0.000;0.000;2023-06-10T08:15:36;7.43;;;4.90;;
31182;SDS011;17813;0.000;0.000;2023-06-10T08:18:04;6.28;;;4.55;;
31182;SDS011;17813;0.000;0.000;2023-06-10T08:20:31;4.97;;;4.55;;
31182;SDS011;17813;0.000;0.000;2023-06-10T08:22:58;6.53;;;4.88;;
31182;SDS011;17813;0.000;0.000;2023-06-10T08:25:25;5.53;;;5.03;;
31182;SDS011;17813;0.000;0.000;2023-06-10T08:27:52;5.30;;;4.43;;
31182;SDS011;17813;0.000;0.000;2023-06-10T08:30:22;6.18;;;4.80;;
31182;SDS011;17813;0.000;0.000;2023-06-10T08:32:49;5.68;;;5.00;;
31182;SDS011;17813;0.000;0.000;2023-06-10T08:35:17;4.90;;;4.40;;
31182;SDS011;17813;0.000;0.000;2023-06-10T08:37:44;5.30;;;4.80;;
31182;SDS011;17813;0.000;0.000;2023-06-10T08:40:14;6.25;;;4.85;;
31182;SDS011;17813;0.000;0.000;2023-06-10T08:43:01;5.68;;;4.63;;
31182;SDS011;17813;0.000;0.000;2023-06-10T08:45:55;5.93;;;5.05;;
31182;SDS011;17813;0.000;0.000;2023-06-10T08:48:29;5.10;;;4.60;;
31182;SDS011;17813;0.000;0.000;2023-06-10T08:50:57;5.45;;;4.90;;
31182;SDS011;17813;0.000;0.000;2023-06-10T08:53:30;7.50;;;4.85;;
31182;SDS011;17813;0.000;0.000;2023-06-10T08:56:02;4.90;;;4.40;;
31182;SDS011;17813;0.000;0.000;2023-06-10T08:58:32;6.15;;;4.90;;
31182;SDS011;17813;0.000;0.000;2023-06-10T09:01:00;6.70;;;4.68;;
31182;SDS011;17813;0.000;0.000;2023-06-10T09:03:28;5.97;;;5.32;;
31182;SDS011;17813;0.000;0.000;2023-06-10T09:05:55;5.38;;;4.93;;
31182;SDS011;17813;0.000;0.000;2023-06-10T09:08:26;7.07;;;5.07;;
31182;SDS011;17813;0.000;0.000;2023-06-10T09:10:55;6.13;;;5.53;;
31182;SDS011;17813;0.000;0.000;2023-06-10T09:13:24;8.80;;;5.25;;
31182;SDS011;17813;0.000;0.000;2023-06-10T09:15:51;5.40;;;4.90;;
31182;SDS011;17813;0.000;0.000;2023-06-10T09:18:23;5.57;;;5.07;;
31182;SDS011;17813;0.000;0.000;2023-06-10T09:20:50;5.93;;;5.30;;
31182;SDS011;17813;0.000;0.000;2023-06-10T09:23:17;6.03;;;5.30;;
31182;SDS011;17813;0.000;0.000;2023-06-10T09:25:56;6.25;;;5.07;;
31182;SDS011;17813;0.000;0.000;2023-06-10T09:28:24;5.85;;;5.35;;
31182;SDS011;17813;0.000;0.000;2023-06-10T09:31:05;8.80;;;5.70;;
31182;SDS011;17813;0.000;0.000;2023-06-10T09:33:38;7.28;;;5.78;;
31182;SDS011;17813;0.000;0.000;2023-06-10T09:36:05;5.90;;;5.30;;
31182;SDS011;17813;0.000;0.000;2023-06-10T09:38:33;5.75;;;5.13;;
31182;SDS011;17813;0.000;0.000;2023-06-10T09:41:00;7.55;;;4.90;;
31182;SDS011;17813;0.000;0.000;2023-06-10T09:43:44;7.65;;;5.43;;
31182;SDS011;17813;0.000;0.000;2023-06-10T09:46:15;6.53;;;5.25;;
31182;SDS011;17813;0.000;0.000;2023-06-10T09:48:44;6.05;;;5.53;;
31182;SDS011;17813;0.000;0.000;2023-06-10T09:51:17;6.85;;;5.53;;
31182;SDS011;17813;0.000;0.000;2023-06-10T09:53:48;7.00;;;5.50;;
31182;SDS011;17813;0.000;0.000;2023-06-10T09:56:20;6.95;;;5.80;;
31182;SDS011;17813;0.000;0.000;2023-06-10T09:58:57;6.00;;;5.50;;
31182;SDS011;17813;0.000;0.000;2023-06-10T10:01:24;5.93;;;5.43;;
31182;SDS011;17813;0.000;0.000;2023-06-10T10:03:52;6.35;;;5.75;;
31182;SDS011;17813;0.000;0.000;2023-06-10T10:06:20;6.68;;;6.10;;
31182;SDS011;17813;0.000;0.000;2023-06-10T10:08:49;6.72;;;5.68;;
31182;SDS011;17813;0.000;0.000;2023-06-10T10:11:16;6.80;;;6.20;;
31182;SDS011;17813;0.000;0.000;2023-06-10T10:13:47;7.22;;;6.53;;
31182;SDS011;17813;0.000;0.000;2023-06-10T10:16:31;6.93;;;6.32;;
31182;SDS011;17813;0.000;0.000;2023-06-10T10:19:10;6.70;;;6.00;;
31182;SDS011;17813;0.000;0.000;2023-06-10T10:21:53;7.70;;;6.28;;
31182;SDS011;17813;0.000;0.000;2023-06-10T10:24:33;16.15;;;6.30;;
31182;SDS011;17813;0.000;0.000;2023-06-10T10:27:04;7.25;;;5.97;;
31182;SDS011;17813;0.000;0.000;2023-06-10T10:29:39;7.88;;;6.40;;
31182;SDS011;17813;0.000;0.000;2023-06-10T10:32:09;7.10;;;6.50;;
31182;SDS011;17813;0.000;0.000;2023-06-10T10:35:03;7.68;;;5.80;;
31182;SDS011;17813;0.000;0.000;2023-06-10T10:37:35;7.40;;;6.47;;
31182;SDS011;17813;0.000;0.000;2023-06-10T10:40:02;7.40;;;6.38;;
31182;SDS011;17813;0.000;0.000;2023-06-10T10:42:31;7.18;;;6.38;;
31182;SDS011;17813;0.000;0.000;2023-06-10T10:44:59;7.32;;;6.63;;
31182;SDS011;17813;0.000;0.000;2023-06-10T10:47:30;6.55;;;6.05;;
31182;SDS011;17813;0.000;0.000;2023-06-10T10:49:59;7.35;;;6.43;;
31182;SDS011;17813;0.000;0.000;2023-06-10T10:52:59;7.10;;;6.40;;
31182;SDS011;17813;0.000;0.000;2023-06-10T10:55:32;7.78;;;6.78;;
31182;SDS011;17813;0.000;0.000;2023-06-10T10:58:03;6.95;;;6.32;;
31182;SDS011;17813;0.000;0.000;2023-06-10T11:00:36;7.88;;;7.07;;
31182;SDS011;17813;0.000;0.000;2023-06-10T11:03:16;7.65;;;6.75;;
31182;SDS011;17813;0.000;0.000;2023-06-10T11:05:45;6.50;;;6.00;;
31182;SDS011;17813;0.000;0.000;2023-06-10T11:10:58;5.38;;;4.88;;
31182;SDS011;17813;0.000;0.000;2023-06-10T11:13:27;4.80;;;4.40;;
31182;SDS011;17813;0.000;0.000;2023-06-10T11:15:57;5.68;;;4.95;;
31182;SDS011;17813;0.000;0.000;2023-06-10T11:18:26;4.53;;;4.13;;
31182;SDS011;17813;0.000;0.000;2023-06-10T11:21:02;5.15;;;4.53;;
31182;SDS011;17813;0.000;0.000;2023-06-10T11:26:20;6.45;;;4.45;;
31182;SDS011;17813;0.000;0.000;2023-06-10T11:29:00;4.90;;;4.50;;
31182;SDS011;17813;0.000;0.000;2023-06-10T11:31:32;7.63;;;4.38;;
31182;SDS011;17813;0.000;0.000;2023-06-10T11:34:08;6.95;;;4.25;;
31182;SDS011;17813;0.000;0.000;2023-06-10T11:36:38;4.85;;;3.90;;
31182;SDS011;17813;0.000;0.000;2023-06-10T11:39:08;6.97;;;4.32;;
31182;SDS011;17813;0.000;0.000;2023-06-10T11:41:37;4.85;;;4.38;;
31182;SDS011;17813;0.000;0.000;2023-06-10T11:44:08;4.40;;;4.00;;
31182;SDS011;17813;0.000;0.000;2023-06-10T11:46:49;4.72;;;4.00;;
31182;SDS011;17813;0.000;0.000;2023-06-10T11:49:24;4.07;;;3.75;;
31182;SDS011;17813;0.000;0.000;2023-06-10T11:51:51;4.97;;;4.20;;
31182;SDS011;17813;0.000;0.000;2023-06-10T11:54:22;5.20;;;4.60;;
31182;SDS011;17813;0.000;0.000;2023-06-10T11:56:50;5.97;;;4.05;;
31182;SDS011;17813;0.000;0.000;2023-06-10T11:59:28;4.60;;;4.07;;
31182;SDS011;17813;0.000;0.000;2023-06-10T12:01:57;5.55;;;4.20;;
31182;SDS011;17813;0.000;0.000;2023-06-10T12:04:25;6.18;;;4.30;;
31182;SDS011;17813;0.000;0.000;2023-06-10T12:06:52;4.70;;;4.18;;
31182;SDS011;17813;0.000;0.000;2023-06-10T12:09:21;5.60;;;4.22;;
31182;SDS011;17813;0.000;0.000;2023-06-10T12:20:01;5.55;;;4.20;;
31182;SDS011;17813;0.000;0.000;2023-06-10T12:22:39;5.25;;;4.50;;
31182;SDS011;17813;0.000;0.000;2023-06-10T12:25:07;7.15;;;4.30;;
31182;SDS011;17813;0.000;0.000;2023-06-10T12:27:35;5.10;;;4.60;;
31182;SDS011;17813;0.000;0.000;2023-06-10T12:30:05;6.80;;;4.45;;
31182;SDS011;17813;0.000;0.000;2023-06-10T12:35:07;4.47;;;4.10;;
31182;SDS011;17813;0.000;0.000;2023-06-10T12:37:35;4.72;;;3.97;;
31182;SDS011;17813;0.000;0.000;2023-06-10T12:40:14;4.97;;;4.35;;
31182;SDS011;17813;0.000;0.000;2023-06-10T12:42:49;4.38;;;3.97;;
31182;SDS011;17813;0.000;0.000;2023-06-10T12:45:17;4.68;;;4.28;;
31182;SDS011;17813;0.000;0.000;2023-06-10T12:48:07;4.90;;;4.40;;
31182;SDS011;17813;0.000;0.000;2023-06-10T12:50:36;5.47;;;4.20;;
31182;SDS011;17813;0.000;0.000;2023-06-10T12:53:04;4.78;;;4.20;;
31182;SDS011;17813;0.000;0.000;2023-06-10T12:55:33;4.60;;;4.20;;
31182;SDS011;17813;0.000;0.000;2023-06-10T12:58:00;5.40;;;4.10;;
31182;SDS011;17813;0.000;0.000;2023-06-10T13:00:28;4.82;;;4.13;;
31182;SDS011;17813;0.000;0.000;2023-06-10T13:02:56;4.10;;;3.80;;
31182;SDS011;17813;0.000;0.000;2023-06-10T13:05:28;4.47;;;4.07;;
31182;SDS011;17813;0.000;0.000;2023-06-10T13:07:55;5.40;;;3.90;;
31182;SDS011;17813;0.000;0.000;2023-06-10T13:10:22;4.45;;;4.05;;
31182;SDS011;17813;0.000;0.000;2023-06-10T13:12:51;4.40;;;4.00;;
31182;SDS011;17813;0.000;0.000;2023-06-10T13:15:18;4.47;;;4.10;;
31182;SDS011;17813;0.000;0.000;2023-06-10T13:17:46;4.88;;;4.00;;
31182;SDS011;17813;0.000;0.000;2023-06-10T13:20:15;5.20;;;4.10;;
31182;SDS011;17813;0.000;0.000;2023-06-10T13:22:42;4.40;;;4.07;;
31182;SDS011;17813;0.000;0.000;2023-06-10T13:25:09;4.35;;;3.95;;
31182;SDS011;17813;0.000;0.000;2023-06-10T13:27:57;4.22;;;3.92;;
31182;SDS011;17813;0.000;0.000;2023-06-10T13:30:24;4.95;;;4.00;;
31182;SDS011;17813;0.000;0.000;2023-06-10T13:32:53;4.53;;;3.80;;
31182;SDS011;17813;0.000;0.000;2023-06-10T13:35:20;4.25;;;3.85;;
31182;SDS011;17813;0.000;0.000;2023-06-10T13:37:47;4.35;;;4.03;;
31182;SDS011;17813;0.000;0.000;2023-06-10T13:40:15;4.28;;;3.88;;
31182;SDS011;17813;0.000;0.000;2023-06-10T13:42:47;4.40;;;4.00;;
31182;SDS011;17813;0.000;0.000;2023-06-10T13:45:17;4.60;;;4.20;;
31182;SDS011;17813;0.000;0.000;2023-06-10T13:47:44;4.30;;;3.90;;
31182;SDS011;17813;0.000;0.000;2023-06-10T13:50:11;4.03;;;3.72;;
31182;SDS011;17813;0.000;0.000;2023-06-10T13:52:38;7.68;;;3.85;;
31182;SDS011;17813;0.000;0.000;2023-06-10T13:55:06;9.77;;;4.53;;
31182;SDS011;17813;0.000;0.000;2023-06-10T13:57:33;4.38;;;3.97;;
31182;SDS011;17813;0.000;0.000;2023-06-10T14:00:01;4.90;;;4.40;;
31182;SDS011;17813;0.000;0.000;2023-06-10T14:02:28;4.13;;;3.83;;
31182;SDS011;17813;0.000;0.000;2023-06-10T14:04:57;5.32;;;4.80;;
31182;SDS011;17813;0.000;0.000;2023-06-10T14:07:23;4.40;;;4.00;;
31182;SDS011;17813;0.000;0.000;2023-06-10T14:09:51;5.00;;;3.97;;
31182;SDS011;17813;0.000;0.000;2023-06-10T14:12:18;4.47;;;4.10;;
31182;SDS011;17813;0.000;0.000;2023-06-10T14:14:46;5.03;;;3.90;;
31182;SDS011;17813;0.000;0.000;2023-06-10T14:17:13;5.05;;;4.00;;
31182;SDS011;17813;0.000;0.000;2023-06-10T14:19:41;5.13;;;4.00;;
31182;SDS011;17813;0.000;0.000;2023-06-10T14:22:07;4.10;;;3.80;;
31182;SDS011;17813;0.000;0.000;2023-06-10T14:24:35;4.30;;;4.00;;
31182;SDS011;17813;0.000;0.000;2023-06-10T14:27:03;6.85;;;4.03;;
31182;SDS011;17813;0.000;0.000;2023-06-10T14:29:30;4.65;;;3.80;;
31182;SDS011;17813;0.000;0.000;2023-06-10T14:32:03;4.10;;;3.80;;
31182;SDS011;17813;0.000;0.000;2023-06-10T14:34:31;4.40;;;4.00;;
31182;SDS011;17813;0.000;0.000;2023-06-10T14:36:59;4.22;;;3.83;;
31182;SDS011;17813;0.000;0.000;2023-06-10T14:39:31;4.50;;;4.10;;
31182;SDS011;17813;0.000;0.000;2023-06-10T14:41:58;4.45;;;3.97;;
31182;SDS011;17813;0.000;0.000;2023-06-10T14:44:26;4.50;;;4.10;;
31182;SDS011;17813;0.000;0.000;2023-06-10T14:46:55;4.47;;;4.07;;
31182;SDS011;17813;0.000;0.000;2023-06-10T14:49:22;5.22;;;4.10;;
31182;SDS011;17813;0.000;0.000;2023-06-10T14:51:49;4.38;;;3.90;;
31182;SDS011;17813;0.000;0.000;2023-06-10T14:54:17;4.15;;;3.72;;
31182;SDS011;17813;0.000;0.000;2023-06-10T14:56:44;4.50;;;4.10;;
31182;SDS011;17813;0.000;0.000;2023-06-10T14:59:11;5.25;;;4.13;;
31182;SDS011;17813;0.000;0.000;2023-06-10T15:01:40;5.45;;;4.03;;
31182;SDS011;17813;0.000;0.000;2023-06-10T15:04:06;5.00;;;3.97;;
31182;SDS011;17813;0.000;0.000;2023-06-10T15:06:43;4.45;;;4.05;;
31182;SDS011;17813;0.000;0.000;2023-06-10T15:09:11;4.38;;;3.97;;
31182;SDS011;17813;0.000;0.000;2023-06-10T15:11:39;4.18;;;3.78;;
31182;SDS011;17813;0.000;0.000;2023-06-10T15:14:07;6.10;;;4.00;;
31182;SDS011;17813;0.000;0.000;2023-06-10T15:16:34;4.60;;;4.20;;
31182;SDS011;17813;0.000;0.000;2023-06-10T15:19:01;4.40;;;4.00;;
31182;SDS011;17813;0.000;0.000;2023-06-10T15:21:28;4.82;;;4.43;;
31182;SDS011;17813;0.000;0.000;2023-06-10T15:23:55;4.93;;;4.00;;
31182;SDS011;17813;0.000;0.000;2023-06-10T15:26:25;5.50;;;4.55;;
31182;SDS011;17813;0.000;0.000;2023-06-10T15:28:52;4.88;;;4.15;;
31182;SDS011;17813;0.000;0.000;2023-06-10T15:31:19;4.53;;;4.10;;
31182;SDS011;17813;0.000;0.000;2023-06-10T15:33:46;4.95;;;4.07;;